Culver, Kansas
Current Conditions -  °F | °C
As of 2:53 AM on Sunday 21 Dec 2014 (Local Time) from KSLN Reporting Station
Clear Clear  
Wind Chill: 30°   Ceiling: Unl
Heat Index: 36°   Visibility: 8mi
Dew Point: 33°   Wind: 8mph
Humidity: 89%   Direction: 180°S
Pressure: 30"   Gusts: NA
Location:  38.9793°N, 97.8136°W
Report Text: KSLN 210853Z AUTO 18007KT 8SM CLR 02/01 A3000 RMK AO2 SLP164 T00220006 58009
Loading
Personal Weather Stations






























Interactive Weather Map New forecast layout! Learn more

10-Day Weather Forecast

Advertisements
Track Severe Weather on mobile